Italic G — IBYH — position and weather

sailwx.info

Track history (hours):
 
Tides and Currents Weather Stations Pressure Air Temp Water Temp Dewpoint Dewpoint Depression Visibility Wind Speed Wind Dir Waves Ship Positions

Italic G

Last reported at 2017-Aug-17 18:35 UTC. Time now 2017-Aug-18 08:46 UTC.
Position S 20°08' E 118°32'.

Length 229 m; draft 6.6 m.

Type: Cargo ship. MMSI: 247282300.

Date/timePositionNaut miles runAvg speedWind from/ knotsBaromVisibWave heightAir tempDewpointWater temp
2017-Aug-17 18:35S 20°08' E 118°32'0 0.1
2017-Aug-17 18:29S 20°08' E 118°32'0 0.0
2017-Aug-17 16:23S 20°08' E 118°32'0 0.1
2017-Aug-17 14:59S 20°08' E 118°32'0 0.0
2017-Aug-17 14:23S 20°08' E 118°32'0 0.1
2017-Aug-17 13:53S 20°08' E 118°32'0 0.1
2017-Aug-17 13:17S 20°08' E 118°32'0 0.1
2017-Aug-17 12:41S 20°08' E 118°32'0 0.0
2017-Aug-17 12:29S 20°08' E 118°32'0 0.0
2017-Aug-17 11:53S 20°08' E 118°32'0 0.0
2017-Aug-17 10:53S 20°08' E 118°32'0 0.0
2017-Aug-17 10:29S 20°08' E 118°32'0 0.1
2017-Aug-17 09:53S 20°08' E 118°32'0 0.0
2017-Aug-17 09:23S 20°08' E 118°32'0 0.0
2017-Aug-17 08:53S 20°08' E 118°32'0 0.0
2017-Aug-17 08:29S 20°08' E 118°32'0 0.0
2017-Aug-16 13:57S 20°08' E 118°32'0 0.0
2017-Aug-16 13:27S 20°08' E 118°32'0 0.1
2017-Aug-16 12:51S 20°08' E 118°32'0 0.1
2017-Aug-16 12:21S 20°08' E 118°32'0 0.0
2017-Aug-16 11:51S 20°08' E 118°32'0 0.0
2017-Aug-16 11:27S 20°08' E 118°32'0 0.1
2017-Aug-16 09:45S 20°08' E 118°32'0 0.0
2017-Aug-16 09:27S 20°08' E 118°32'42 2.0
2017-Aug-15 12:37S 19°27' E 118°22'213.6
2017-Aug-15 12:29S 19°25' E 118°22'713.5
2017-Aug-15 12:00S 19°19' E 118°21'713.3
2017-Aug-15 11:29S 19°12' E 118°19'713.5
2017-Aug-15 10:57S 19°05' E 118°18'613.6
2017-Aug-15 10:30S 18°59' E 118°17'2213.4
2017-Aug-15 08:53S 18°38' E 118°12'  
2017-Aug-10 10:12N 01°18' E 104°06'1 1.7
2017-Aug-10 09:49N 01°18' E 104°05'0 0.0
2017-Aug-10 00:10N 01°18' E 104°05'0 0.1
2017-Aug-09 23:43N 01°18' E 104°05'0 0.0
2017-Aug-09 23:25N 01°18' E 104°05'0 0.0
2017-Aug-09 22:58N 01°18' E 104°05'0 0.0
2017-Aug-09 22:28N 01°18' E 104°05'0 0.0
2017-Aug-09 21:55N 01°18' E 104°05'0 0.0
2017-Aug-09 21:13N 01°18' E 104°05'0 0.0
2017-Aug-09 20:55N 01°18' E 104°05'0 0.0
2017-Aug-09 20:13N 01°18' E 104°05'0 0.0
2017-Aug-09 19:55N 01°18' E 104°05'0 0.0
2017-Aug-09 17:49N 01°18' E 104°05'0 0.0
2017-Aug-09 17:25N 01°18' E 104°05'0 0.3
2017-Aug-09 16:37N 01°18' E 104°06'0 2.2
2017-Aug-09 16:30N 01°18' E 104°06'2 4.5
2017-Aug-09 15:58N 01°17' E 104°08'3 5.4
2017-Aug-09 15:25N 01°18' E 104°11'  
Track history (hours):
 
Tides and Currents Weather Stations Pressure Air Temp Water Temp Dewpoint Dewpoint Depression Visibility Wind Speed Wind Dir Waves Ship Positions

Italic G

Last reported at 2017-Aug-17 18:35 UTC. Time now 2017-Aug-18 08:46 UTC.
Position S 20°08' E 118°32'.

Length 229 m; draft 6.6 m.

Type: Cargo ship. MMSI: 247282300.

Date/timePositionNaut miles runAvg speedWind from/ knotsBaromVisibWave heightAir tempDewpointWater temp
2017-Aug-17 18:35S 20°08' E 118°32'0 0.1
2017-Aug-17 18:29S 20°08' E 118°32'0 0.0
2017-Aug-17 16:23S 20°08' E 118°32'0 0.1
2017-Aug-17 14:59S 20°08' E 118°32'0 0.0
2017-Aug-17 14:23S 20°08' E 118°32'0 0.1
2017-Aug-17 13:53S 20°08' E 118°32'0 0.1
2017-Aug-17 13:17S 20°08' E 118°32'0 0.1
2017-Aug-17 12:41S 20°08' E 118°32'0 0.0
2017-Aug-17 12:29S 20°08' E 118°32'0 0.0
2017-Aug-17 11:53S 20°08' E 118°32'0 0.0
2017-Aug-17 10:53S 20°08' E 118°32'0 0.0
2017-Aug-17 10:29S 20°08' E 118°32'0 0.1
2017-Aug-17 09:53S 20°08' E 118°32'0 0.0
2017-Aug-17 09:23S 20°08' E 118°32'0 0.0
2017-Aug-17 08:53S 20°08' E 118°32'0 0.0
2017-Aug-17 08:29S 20°08' E 118°32'0 0.0
2017-Aug-16 13:57S 20°08' E 118°32'0 0.0
2017-Aug-16 13:27S 20°08' E 118°32'0 0.1
2017-Aug-16 12:51S 20°08' E 118°32'0 0.1
2017-Aug-16 12:21S 20°08' E 118°32'0 0.0
2017-Aug-16 11:51S 20°08' E 118°32'0 0.0
2017-Aug-16 11:27S 20°08' E 118°32'0 0.1
2017-Aug-16 09:45S 20°08' E 118°32'0 0.0
2017-Aug-16 09:27S 20°08' E 118°32'42 2.0
2017-Aug-15 12:37S 19°27' E 118°22'213.6
2017-Aug-15 12:29S 19°25' E 118°22'713.5
2017-Aug-15 12:00S 19°19' E 118°21'713.3
2017-Aug-15 11:29S 19°12' E 118°19'713.5
2017-Aug-15 10:57S 19°05' E 118°18'613.6
2017-Aug-15 10:30S 18°59' E 118°17'2213.4
2017-Aug-15 08:53S 18°38' E 118°12'  
2017-Aug-10 10:12N 01°18' E 104°06'1 1.7
2017-Aug-10 09:49N 01°18' E 104°05'0 0.0
2017-Aug-10 00:10N 01°18' E 104°05'0 0.1
2017-Aug-09 23:43N 01°18' E 104°05'0 0.0
2017-Aug-09 23:25N 01°18' E 104°05'0 0.0
2017-Aug-09 22:58N 01°18' E 104°05'0 0.0
2017-Aug-09 22:28N 01°18' E 104°05'0 0.0
2017-Aug-09 21:55N 01°18' E 104°05'0 0.0
2017-Aug-09 21:13N 01°18' E 104°05'0 0.0
2017-Aug-09 20:55N 01°18' E 104°05'0 0.0
2017-Aug-09 20:13N 01°18' E 104°05'0 0.0
2017-Aug-09 19:55N 01°18' E 104°05'0 0.0
2017-Aug-09 17:49N 01°18' E 104°05'0 0.0
2017-Aug-09 17:25N 01°18' E 104°05'0 0.3
2017-Aug-09 16:37N 01°18' E 104°06'0 2.2
2017-Aug-09 16:30N 01°18' E 104°06'2 4.5
2017-Aug-09 15:58N 01°17' E 104°08'3 5.4
2017-Aug-09 15:25N 01°18' E 104°11'  

Dump ship's entire track history